Terminal Aerodrome Forecast
Issued by NWS Sterling, VA

Current Version | Previous Version | Graphics & Text | Print | Product List | Glossary On
Versions: 1 2 3 4 5 6 7 8 9 10 11 12 13 14 15 16 17 18 19 20 21 22 23 24 25 26
000
FTUS41 KLWX 272136 AAA
TAFDCA
TAF AMD
KDCA 272136Z 2722/2818 34008G16KT P6SM FEW050
     FM272300 35008KT P6SM SKC
     FM280300 36006KT P6SM BKN150=

USA.gov is the U.S. government's official web portal to all federal, state and local government web resources and services.